Time;durP1;ratioP1;P1;durP2;ratioP2;P2;SDS_P1;SDS_P2;PMS_P1;PMS_P2;Temp;Humidity;BMP_temperature;BMP_pressure;BME280_temperature;BME280_humidity;BME280_pressure;Samples;Min_cycle;Max_cycle;Signal;HPM_P1;HPM_P2
2021/11/25 00:00:13;;;;;;;26.50;13.57;;;2.70;99.90;;;;;;5078836;28;20487;-55
2021/11/25 00:02:39;;;;;;;29.02;14.55;;;2.80;99.90;;;;;;5082253;28;20822;-53
2021/11/25 00:05:07;;;;;;;27.65;12.77;;;2.80;99.90;;;;;;5084021;28;20393;-53
2021/11/25 00:07:33;;;;;;;25.33;12.43;;;2.80;99.90;;;;;;5090223;28;20366;-56
2021/11/25 00:09:58;;;;;;;26.52;13.30;;;3.10;99.90;;;;;;5082158;28;20421;-56
2021/11/25 00:12:24;;;;;;;26.08;12.32;;;2.80;99.90;;;;;;5072288;28;20403;-55
2021/11/25 00:14:49;;;;;;;26.40;13.67;;;3.40;99.90;;;;;;5070042;28;20371;-56
2021/11/25 00:17:15;;;;;;;28.07;13.33;;;2.90;99.90;;;;;;5067305;28;20479;-55
2021/11/25 00:19:41;;;;;;;28.55;14.10;;;2.90;99.90;;;;;;5070112;28;20455;-55
2021/11/25 00:22:06;;;;;;;29.63;14.43;;;2.90;99.90;;;;;;5069381;28;20399;-55
2021/11/25 00:24:32;;;;;;;27.63;13.35;;;3.50;99.90;;;;;;5051746;28;20388;-55
2021/11/25 00:26:58;;;;;;;26.00;13.73;;;2.90;99.90;;;;;;5069620;28;20761;-55
2021/11/25 00:29:24;;;;;;;27.20;13.30;;;2.90;99.90;;;;;;5069004;28;20423;-54
2021/11/25 00:31:50;;;;;;;29.67;13.73;;;2.90;99.90;;;;;;5069150;28;20376;-56
2021/11/25 00:34:16;;;;;;;27.27;13.13;;;2.90;99.90;;;;;;5068824;28;20853;-55
2021/11/25 00:36:42;;;;;;;30.20;13.45;;;2.90;99.90;;;;;;5051651;28;20466;-55
2021/11/25 00:39:08;;;;;;;27.27;13.48;;;2.80;99.90;;;;;;5068575;28;20889;-55
2021/11/25 00:41:33;;;;;;;29.85;13.65;;;2.80;99.90;;;;;;5069385;28;20399;-55
2021/11/25 00:43:59;;;;;;;25.97;13.10;;;2.90;99.90;;;;;;5051669;28;20470;-55
2021/11/25 00:46:25;;;;;;;24.67;12.87;;;2.90;99.90;;;;;;5068578;28;21277;-55
2021/11/25 00:48:50;;;;;;;28.30;13.40;;;2.90;99.90;;;;;;5068597;28;20441;-55
2021/11/25 00:51:16;;;;;;;29.97;13.77;;;2.80;99.90;;;;;;5068703;28;20384;-55
2021/11/25 00:53:41;;;;;;;25.58;12.95;;;2.90;99.90;;;;;;5069065;28;20853;-55
2021/11/25 00:56:07;;;;;;;29.05;13.05;;;2.90;99.90;;;;;;5068455;28;20467;-55
2021/11/25 00:58:33;;;;;;;26.10;12.83;;;3.00;99.90;;;;;;5069063;28;20754;-55
2021/11/25 01:00:59;;;;;;;25.70;11.90;;;3.00;99.90;;;;;;5069244;28;20368;-55
2021/11/25 01:03:24;;;;;;;28.02;13.35;;;3.00;99.90;;;;;;5068315;28;20376;-55
2021/11/25 01:05:50;;;;;;;26.03;12.90;;;3.00;99.90;;;;;;5069370;28;20411;-55
2021/11/25 01:08:16;;;;;;;28.80;14.03;;;3.00;99.90;;;;;;5068223;28;20411;-55
2021/11/25 01:10:43;;;;;;;34.20;15.00;;;2.90;99.90;;;;;;5068436;28;20750;-54
2021/11/25 01:13:09;;;;;;;29.85;12.85;;;2.90;99.90;;;;;;5067978;28;20404;-53
2021/11/25 01:15:36;;;;;;;27.25;13.10;;;2.70;99.90;;;;;;5068964;28;20430;-55
2021/11/25 01:18:13;;;;;;;31.30;14.87;;;2.60;99.90;;;;;;5067660;28;20752;-55
2021/11/25 01:20:41;;;;;;;30.88;15.68;;;2.50;99.90;;;;;;5064776;28;20372;-55
2021/11/25 01:23:10;;;;;;;32.88;14.40;;;2.90;99.90;;;;;;5068307;28;20379;-57
2021/11/25 01:25:36;;;;;;;26.00;13.77;;;2.70;99.90;;;;;;5068600;28;20393;-55
2021/11/25 01:28:02;;;;;;;27.15;13.38;;;2.70;99.90;;;;;;5068815;28;20491;-55
2021/11/25 01:30:29;;;;;;;27.02;12.98;;;2.70;99.90;;;;;;5068049;28;20944;-54
2021/11/25 01:32:55;;;;;;;25.00;12.80;;;3.90;99.90;;;;;;5068538;28;20388;-55
2021/11/25 01:35:20;;;;;;;27.80;14.53;;;2.80;99.90;;;;;;5068131;28;20406;-55
2021/11/25 01:37:46;;;;;;;26.98;12.65;;;4.20;99.90;;;;;;5068792;28;20402;-55
2021/11/25 01:40:14;;;;;;;26.23;13.52;;;2.70;99.90;;;;;;5067788;28;20490;-55
2021/11/25 01:42:42;;;;;;;24.60;12.90;;;2.60;99.90;;;;;;5068820;28;20403;-55
2021/11/25 01:45:10;;;;;;;26.30;12.67;;;4.30;99.90;;;;;;5068111;28;20379;-56
2021/11/25 01:47:39;;;;;;;27.85;13.73;;;1.80;99.90;;;;;;5050357;28;20749;-55
2021/11/25 01:50:05;;;;;;;25.27;12.65;;;2.70;99.90;;;;;;5068792;28;20387;-55
2021/11/25 01:52:31;;;;;;;26.00;12.82;;;2.70;99.90;;;;;;5067851;28;20380;-55
2021/11/25 01:54:56;;;;;;;28.10;13.53;;;2.80;99.90;;;;;;5068367;28;20384;-53
2021/11/25 01:57:22;;;;;;;28.80;14.27;;;2.60;99.90;;;;;;5067704;28;20418;-55
2021/11/25 01:59:48;;;;;;;28.15;12.75;;;3.60;99.90;;;;;;5070429;28;20419;-55
2021/11/25 02:02:14;;;;;;;26.33;12.70;;;3.80;99.90;;;;;;5071773;28;20478;-55
2021/11/25 02:04:40;;;;;;;28.13;13.50;;;2.90;99.90;;;;;;5072291;28;20380;-55
2021/11/25 02:07:05;;;;;;;27.67;14.27;;;2.60;99.90;;;;;;5072237;28;20521;-55
2021/11/25 02:09:31;;;;;;;29.75;14.00;;;3.70;99.90;;;;;;5071468;28;20415;-54
2021/11/25 02:11:57;;;;;;;26.75;12.70;;;3.60;99.90;;;;;;5078124;28;20505;-55
2021/11/25 02:14:24;;;;;;;25.77;12.93;;;2.50;99.90;;;;;;5091828;28;20386;-53
2021/11/25 02:16:50;;;;;;;36.40;15.63;;;2.50;99.90;;;;;;5092525;28;20412;-55
2021/11/25 02:19:16;;;;;;;30.63;13.70;;;2.50;99.90;;;;;;5073291;28;20736;-55
2021/11/25 02:21:43;;;;;;;25.50;13.27;;;2.60;99.90;;;;;;5092332;28;20863;-55
2021/11/25 02:24:09;;;;;;;28.40;14.15;;;2.70;99.90;;;;;;5092315;28;20386;-56
2021/11/25 02:26:35;;;;;;;30.67;13.98;;;2.70;99.90;;;;;;5091379;28;20487;-55
2021/11/25 02:29:02;;;;;;;26.65;13.50;;;2.70;99.90;;;;;;5092472;28;20492;-54
2021/11/25 02:31:28;;;;;;;31.10;13.70;;;3.10;99.90;;;;;;5091483;28;20378;-55
2021/11/25 02:33:53;;;;;;;26.38;13.15;;;2.70;99.90;;;;;;5091976;28;20480;-55
2021/11/25 02:36:19;;;;;;;26.70;12.80;;;2.60;99.90;;;;;;5091468;28;20736;-53
2021/11/25 02:38:45;;;;;;;26.05;12.98;;;2.60;99.90;;;;;;5092411;28;20382;-52
2021/11/25 02:41:11;;;;;;;23.80;12.07;;;4.10;99.90;;;;;;5091714;28;20390;-56
2021/11/25 02:43:37;;;;;;;27.05;12.73;;;2.00;99.90;;;;;;5091897;28;20382;-54
2021/11/25 02:46:05;;;;;;;28.55;13.23;;;2.70;99.90;;;;;;5073897;28;20481;-54
2021/11/25 02:48:43;;;;;;;27.15;12.52;;;2.70;99.90;;;;;;5091133;28;20401;-55
2021/11/25 02:51:11;;;;;;;26.67;12.32;;;2.70;99.90;;;;;;5092071;28;20453;-54
2021/11/25 02:53:38;;;;;;;27.02;12.93;;;2.70;99.90;;;;;;5091205;28;20513;-55
2021/11/25 02:56:07;;;;;;;28.02;13.65;;;2.70;99.90;;;;;;5091665;28;20387;-55
2021/11/25 02:58:34;;;;;;;26.33;11.98;;;2.70;99.90;;;;;;5090842;28;20488;-55
2021/11/25 03:01:22;;;;;;;27.50;12.77;;;2.70;99.90;;;;;;5091673;28;20417;-54
2021/11/25 03:03:49;;;;;;;27.00;12.97;;;2.70;99.90;;;;;;5090530;28;20515;-54
2021/11/25 03:06:17;;;;;;;25.88;12.80;;;2.70;99.90;;;;;;5090832;28;20406;-56
2021/11/25 03:08:44;;;;;;;29.98;13.35;;;2.80;99.90;;;;;;5090204;28;20472;-55
2021/11/25 03:11:13;;;;;;;29.27;14.02;;;4.00;99.90;;;;;;5090770;28;20390;-54
2021/11/25 03:13:43;;;;;;;29.05;13.10;;;2.90;99.90;;;;;;5071352;28;20447;-55
2021/11/25 03:16:11;;;;;;;24.90;12.83;;;2.90;99.90;;;;;;5071389;28;20785;-54
2021/11/25 03:18:37;;;;;;;26.83;12.00;;;2.90;99.90;;;;;;5070674;28;20384;-55
2021/11/25 03:21:05;;;;;;;27.45;13.13;;;3.10;99.90;;;;;;5071027;28;20470;-55
2021/11/25 03:23:32;;;;;;;26.25;12.20;;;4.70;99.90;;;;;;5070067;28;20399;-55
2021/11/25 03:26:00;;;;;;;27.10;13.07;;;3.20;99.90;;;;;;5070856;28;20475;-55
2021/11/25 03:28:26;;;;;;;28.80;13.27;;;4.10;99.90;;;;;;5069869;28;20821;-55
2021/11/25 03:30:54;;;;;;;27.55;13.00;;;3.00;99.90;;;;;;5070608;28;20380;-55
2021/11/25 03:33:27;;;;;;;28.45;13.40;;;2.90;99.90;;;;;;5070108;28;20376;-54
2021/11/25 03:35:54;;;;;;;27.30;13.50;;;2.90;99.90;;;;;;5052849;28;20896;-55
2021/11/25 03:38:20;;;;;;;27.58;13.40;;;2.90;99.90;;;;;;5069903;28;20418;-54
2021/11/25 03:40:46;;;;;;;25.57;13.00;;;3.50;99.90;;;;;;5070524;28;20387;-54
2021/11/25 03:43:12;;;;;;;25.63;12.98;;;2.90;99.90;;;;;;5070645;28;20470;-55
2021/11/25 03:45:38;;;;;;;29.23;13.10;;;3.00;99.90;;;;;;5070145;28;20790;-55
2021/11/25 03:48:04;;;;;;;24.60;12.40;;;3.20;99.90;;;;;;5070469;28;20765;-55
2021/11/25 03:50:30;;;;;;;28.53;13.90;;;2.90;99.90;;;;;;5070051;28;20376;-55
2021/11/25 03:52:56;;;;;;;25.85;13.02;;;2.90;99.90;;;;;;5070049;28;20387;-55
2021/11/25 03:55:21;;;;;;;27.45;13.18;;;3.80;99.90;;;;;;5069573;28;20388;-55
2021/11/25 03:57:48;;;;;;;26.80;12.38;;;3.80;99.90;;;;;;5070441;28;20453;-54
2021/11/25 04:00:19;;;;;;;25.98;13.43;;;3.20;99.90;;;;;;5070147;28;20380;-56
2021/11/25 04:02:45;;;;;;;25.75;13.20;;;3.20;99.90;;;;;;5070179;28;20376;-54
2021/11/25 04:05:12;;;;;;;28.58;13.48;;;3.20;99.90;;;;;;5070397;28;20888;-55
2021/11/25 04:07:39;;;;;;;28.02;13.52;;;3.20;99.90;;;;;;5069394;28;20744;-55
2021/11/25 04:10:06;;;;;;;28.87;12.80;;;3.10;99.90;;;;;;5069995;28;20391;-54
2021/11/25 04:12:32;;;;;;;23.70;12.90;;;3.10;99.90;;;;;;5058740;28;20469;-55
2021/11/25 04:14:58;;;;;;;30.00;13.98;;;4.10;99.90;;;;;;5070037;28;20380;-54
2021/11/25 04:17:24;;;;;;;29.73;14.13;;;3.10;99.90;;;;;;5069118;28;20379;-55
2021/11/25 04:19:52;;;;;;;27.30;13.47;;;3.20;99.90;;;;;;5069986;28;20388;-55
2021/11/25 04:22:21;;;;;;;28.10;13.55;;;3.20;99.90;;;;;;5067976;28;20470;-56
2021/11/25 04:24:48;;;;;;;30.60;14.50;;;3.30;99.90;;;;;;5069643;28;20380;-55
2021/11/25 04:27:14;;;;;;;27.33;13.73;;;3.30;99.90;;;;;;5070178;28;20380;-56
2021/11/25 04:29:42;;;;;;;28.92;14.73;;;3.30;99.90;;;;;;5066342;28;20943;-55
2021/11/25 04:37:36;;;;;;;30.42;14.43;;;4.90;99.90;;;;;;5048715;28;20454;-53
2021/11/25 04:40:03;;;;;;;29.88;13.65;;;3.40;99.90;;;;;;5054371;28;20393;-55
2021/11/25 04:42:28;;;;;;;28.80;13.90;;;3.50;99.90;;;;;;5063011;28;20474;-55
2021/11/25 04:44:54;;;;;;;29.30;13.60;;;3.40;99.90;;;;;;5069394;28;21285;-55
2021/11/25 04:47:20;;;;;;;28.07;13.40;;;3.40;99.90;;;;;;5068973;28;20380;-56
2021/11/25 04:49:46;;;;;;;30.30;14.10;;;3.60;99.90;;;;;;5069420;28;20889;-54
2021/11/25 04:52:12;;;;;;;31.13;14.23;;;3.30;99.90;;;;;;5068794;28;20462;-55
2021/11/25 04:54:37;;;;;;;30.98;14.20;;;4.60;99.90;;;;;;5068895;28;20384;-55
2021/11/25 04:57:05;;;;;;;28.15;13.80;;;3.30;99.90;;;;;;5068656;28;20388;-55
2021/11/25 04:59:30;;;;;;;31.98;14.73;;;3.40;99.90;;;;;;5067432;28;20434;-56
2021/11/25 05:01:56;;;;;;;32.17;14.47;;;3.30;99.90;;;;;;5055922;28;20480;-55
2021/11/25 05:04:22;;;;;;;34.97;14.35;;;3.30;99.90;;;;;;5048486;28;20378;-56
2021/11/25 05:06:47;;;;;;;30.20;14.57;;;3.20;99.90;;;;;;5048941;28;20859;-55
2021/11/25 05:09:13;;;;;;;32.10;15.27;;;3.30;99.90;;;;;;5049005;28;20440;-55
2021/11/25 05:11:39;;;;;;;32.92;14.93;;;3.30;99.90;;;;;;5052003;28;20501;-55
2021/11/25 05:14:05;;;;;;;33.13;14.90;;;4.20;99.90;;;;;;5069001;28;20710;-55
2021/11/25 05:16:31;;;;;;;33.55;14.45;;;3.40;99.90;;;;;;5072715;28;20384;-55
2021/11/25 05:18:57;;;;;;;32.17;15.13;;;3.40;99.90;;;;;;5079494;28;20385;-55
2021/11/25 05:21:23;;;;;;;36.65;15.95;;;3.60;99.90;;;;;;5077204;28;20440;-57
2021/11/25 05:23:48;;;;;;;34.90;16.00;;;3.40;99.90;;;;;;5078311;28;20457;-55
2021/11/25 05:26:14;;;;;;;31.50;15.93;;;3.40;99.90;;;;;;5079128;28;20726;-55
2021/11/25 05:28:40;;;;;;;36.70;17.23;;;3.30;99.90;;;;;;5076440;28;20407;-55
2021/11/25 05:31:05;;;;;;;29.37;14.10;;;3.20;99.90;;;;;;5077575;28;20382;-54
2021/11/25 05:33:31;;;;;;;29.75;15.05;;;4.40;99.90;;;;;;5079369;28;20459;-55
2021/11/25 05:35:56;;;;;;;32.60;15.40;;;3.10;99.90;;;;;;5083448;28;20392;-55
2021/11/25 05:38:22;;;;;;;34.28;15.43;;;3.10;99.90;;;;;;5081884;28;20377;-57
2021/11/25 05:40:48;;;;;;;30.33;14.27;;;3.20;99.90;;;;;;5085468;28;20713;-54
2021/11/25 05:43:13;;;;;;;33.40;15.23;;;3.50;99.90;;;;;;5080999;28;20772;-55
2021/11/25 05:45:39;;;;;;;36.67;15.53;;;3.20;99.90;;;;;;5074873;28;21175;-55
2021/11/25 05:48:05;;;;;;;31.00;15.63;;;3.20;99.90;;;;;;5075192;28;20415;-55
2021/11/25 05:50:31;;;;;;;33.45;15.48;;;3.20;99.90;;;;;;5074506;28;20466;-55
2021/11/25 05:52:58;;;;;;;36.67;16.10;;;3.30;99.90;;;;;;5075595;28;20384;-55
2021/11/25 05:55:27;;;;;;;33.80;16.60;;;4.00;99.90;;;;;;5074590;28;20379;-57
2021/11/25 05:57:54;;;;;;;32.35;15.25;;;3.50;99.90;;;;;;5075679;28;20376;-55
2021/11/25 06:00:20;;;;;;;34.70;16.00;;;4.90;99.90;;;;;;5088607;28;20406;-55
2021/11/25 06:02:46;;;;;;;36.67;16.30;;;3.40;99.90;;;;;;5094393;28;20416;-55
2021/11/25 06:05:17;;;;;;;31.33;14.07;;;3.40;99.90;;;;;;5088149;28;20378;-57
2021/11/25 06:07:47;;;;;;;32.78;16.13;;;3.50;99.90;;;;;;5085200;28;20658;-54
2021/11/25 06:10:15;;;;;;;34.70;15.35;;;3.10;99.90;;;;;;5080384;28;20406;-57
2021/11/25 06:12:40;;;;;;;31.77;15.52;;;3.90;99.90;;;;;;5085001;28;20418;-54
2021/11/25 06:15:07;;;;;;;31.33;15.23;;;3.90;99.90;;;;;;5083206;28;20413;-63
2021/11/25 06:17:33;;;;;;;34.42;15.40;;;3.80;99.90;;;;;;5088477;28;20402;-56
2021/11/25 06:19:59;;;;;;;32.30;15.48;;;3.90;99.90;;;;;;5066436;28;20429;-61
2021/11/25 06:22:25;;;;;;;32.63;13.95;;;4.00;99.90;;;;;;5079029;28;20421;-64
2021/11/25 06:24:52;;;;;;;30.55;15.65;;;4.00;99.90;;;;;;5060106;28;21523;-58
2021/11/25 06:27:18;;;;;;;32.20;15.07;;;4.00;99.90;;;;;;5082546;28;20391;-54
2021/11/25 06:29:44;;;;;;;33.55;15.02;;;4.10;99.90;;;;;;5084787;28;20409;-62
2021/11/25 06:32:10;;;;;;;31.65;14.93;;;4.10;99.90;;;;;;5084268;28;20390;-54
2021/11/25 06:34:36;;;;;;;30.73;15.25;;;4.00;99.90;;;;;;5082293;28;20370;-54
2021/11/25 06:37:02;;;;;;;31.08;14.90;;;4.00;99.90;;;;;;5086795;28;20456;-53
2021/11/25 06:39:28;;;;;;;32.58;14.90;;;4.00;99.90;;;;;;5065480;28;20421;-56
2021/11/25 06:41:53;;;;;;;33.67;15.70;;;4.20;99.90;;;;;;5094096;28;20432;-54
2021/11/25 06:44:19;;;;;;;35.97;15.52;;;4.60;99.90;;;;;;5094588;28;20378;-55
2021/11/25 06:46:45;;;;;;;30.95;14.40;;;5.30;99.90;;;;;;5090414;28;20453;-55
2021/11/25 06:49:10;;;;;;;32.50;15.43;;;3.70;99.90;;;;;;5090424;28;20436;-54
2021/11/25 06:51:39;;;;;;;29.25;14.43;;;3.60;99.90;;;;;;5090797;28;20378;-55
2021/11/25 06:54:05;;;;;;;32.83;14.82;;;3.60;99.90;;;;;;5091763;28;20408;-55
2021/11/25 06:56:31;;;;;;;36.23;16.13;;;3.90;99.90;;;;;;5090522;28;20405;-55
2021/11/25 06:58:56;;;;;;;30.45;15.27;;;3.90;99.90;;;;;;5091332;28;20401;-55
2021/11/25 07:01:24;;;;;;;30.27;14.67;;;3.80;99.90;;;;;;5091709;28;20382;-55
2021/11/25 07:03:49;;;;;;;32.88;15.10;;;3.70;99.90;;;;;;5086472;28;20411;-55
2021/11/25 07:06:15;;;;;;;31.90;14.40;;;4.80;99.90;;;;;;5079501;28;20494;-54
2021/11/25 07:08:40;;;;;;;30.23;14.57;;;3.80;99.90;;;;;;5084757;28;20456;-55
2021/11/25 07:11:06;;;;;;;32.93;14.87;;;3.90;99.90;;;;;;5076243;28;20760;-55
2021/11/25 07:13:32;;;;;;;32.90;16.05;;;3.90;99.90;;;;;;5070576;28;20415;-55
2021/11/25 07:15:58;;;;;;;31.05;15.13;;;3.80;99.90;;;;;;5070939;28;20402;-54
2021/11/25 07:18:24;;;;;;;30.33;15.00;;;3.70;99.90;;;;;;5070907;28;20479;-55
2021/11/25 07:20:49;;;;;;;33.40;15.17;;;3.70;99.90;;;;;;5070190;28;20383;-55
2021/11/25 07:23:16;;;;;;;32.35;15.07;;;3.70;99.90;;;;;;5053038;28;20384;-54
2021/11/25 07:25:41;;;;;;;32.35;15.88;;;3.70;99.90;;;;;;5070122;28;20380;-54
2021/11/25 07:28:07;;;;;;;30.17;15.13;;;3.60;99.90;;;;;;5053030;28;20730;-55
2021/11/25 07:30:33;;;;;;;34.23;16.43;;;3.70;99.90;;;;;;5069824;28;20434;-55
2021/11/25 07:32:59;;;;;;;33.75;15.52;;;3.70;99.90;;;;;;5070650;28;20384;-55
2021/11/25 07:35:24;;;;;;;34.85;15.70;;;3.80;99.90;;;;;;5052859;28;20399;-55
2021/11/25 07:37:53;;;;;;;31.70;15.10;;;4.10;99.90;;;;;;5052191;28;20384;-55
2021/11/25 07:40:22;;;;;;;31.55;14.80;;;3.90;99.90;;;;;;5057669;28;20401;-55
2021/11/25 07:42:48;;;;;;;30.30;15.32;;;3.70;99.90;;;;;;5032099;28;20639;-55
2021/11/25 07:45:15;;;;;;;30.02;14.60;;;3.70;99.90;;;;;;5050493;28;20488;-55
2021/11/25 07:47:41;;;;;;;33.53;16.25;;;3.70;99.90;;;;;;5049727;28;20469;-53
2021/11/25 07:50:12;;;;;;;33.85;15.70;;;3.70;99.90;;;;;;5050584;28;20428;-55
2021/11/25 07:52:38;;;;;;;31.30;15.00;;;3.70;99.90;;;;;;5049729;28;20387;-53
2021/11/25 07:55:05;;;;;;;38.90;16.63;;;3.70;99.90;;;;;;5050047;28;20382;-53
2021/11/25 07:57:31;;;;;;;35.50;16.65;;;3.70;99.90;;;;;;5049160;28;20381;-57
2021/11/25 07:59:57;;;;;;;31.95;14.75;;;3.70;99.90;;;;;;5050367;28;20384;-53
2021/11/25 08:02:23;;;;;;;31.83;14.80;;;3.70;99.90;;;;;;5050371;28;20467;-53
2021/11/25 08:04:49;;;;;;;34.03;16.23;;;3.70;99.90;;;;;;5049356;28;20401;-53
2021/11/25 08:07:15;;;;;;;31.80;15.30;;;3.80;99.90;;;;;;5049427;28;20468;-53
2021/11/25 08:09:41;;;;;;;35.88;15.75;;;4.90;99.90;;;;;;5048914;28;20401;-54
2021/11/25 08:12:07;;;;;;;30.45;14.55;;;3.80;99.90;;;;;;5057425;28;20436;-55
2021/11/25 08:14:33;;;;;;;33.08;15.38;;;3.80;99.90;;;;;;5081755;28;20417;-54
2021/11/25 08:16:59;;;;;;;31.08;15.15;;;3.80;99.90;;;;;;5073909;28;20439;-53
2021/11/25 08:19:26;;;;;;;30.67;15.35;;;3.70;99.90;;;;;;5090217;28;20382;-55
2021/11/25 08:21:52;;;;;;;30.90;15.40;;;3.70;99.90;;;;;;5089178;28;20461;-53
2021/11/25 08:24:18;;;;;;;30.58;15.63;;;3.80;99.90;;;;;;5089683;28;20453;-53
2021/11/25 08:26:44;;;;;;;32.97;15.97;;;5.10;99.90;;;;;;5084910;28;20459;-55
2021/11/25 08:29:09;;;;;;;30.65;15.00;;;3.80;99.90;;;;;;5089752;28;20935;-55
2021/11/25 08:31:35;;;;;;;34.38;16.23;;;3.90;99.90;;;;;;5077635;28;20404;-55
2021/11/25 08:34:00;;;;;;;33.93;16.17;;;3.90;99.90;;;;;;5069528;28;20401;-55
2021/11/25 08:36:26;;;;;;;34.67;15.57;;;3.90;99.90;;;;;;5077687;28;20469;-52
2021/11/25 08:38:52;;;;;;;31.92;15.57;;;4.00;99.90;;;;;;5087851;28;20945;-55
2021/11/25 08:41:18;;;;;;;34.47;17.40;;;4.10;99.90;;;;;;5087432;28;20479;-52
2021/11/25 08:43:44;;;;;;;35.00;16.77;;;4.10;99.90;;;;;;5088755;28;20378;-53
2021/11/25 08:46:10;;;;;;;35.60;16.00;;;4.10;99.90;;;;;;5089145;28;20428;-53
2021/11/25 08:48:35;;;;;;;30.73;14.57;;;4.20;99.90;;;;;;5088801;28;20883;-53
2021/11/25 08:51:03;;;;;;;32.15;15.30;;;4.40;99.90;;;;;;5071054;28;20390;-54
2021/11/25 08:53:30;;;;;;;31.42;15.90;;;4.50;99.90;;;;;;5089186;28;20405;-53
2021/11/25 08:55:56;;;;;;;34.08;15.77;;;4.60;99.90;;;;;;5088702;28;20425;-53
2021/11/25 08:58:21;;;;;;;31.67;14.03;;;4.70;99.90;;;;;;5089158;28;20830;-53
2021/11/25 09:00:47;;;;;;;34.27;15.37;;;4.70;99.90;;;;;;5070340;28;20390;-53
2021/11/25 09:03:13;;;;;;;31.30;14.95;;;4.60;99.90;;;;;;5089382;28;20434;-53
2021/11/25 09:05:38;;;;;;;31.93;14.93;;;4.60;99.90;;;;;;5070175;28;20721;-53
2021/11/25 09:08:04;;;;;;;31.95;15.50;;;4.70;99.90;;;;;;5087729;28;20405;-53
2021/11/25 09:10:32;;;;;;;32.08;15.80;;;4.80;99.90;;;;;;5070486;28;20401;-54
2021/11/25 09:12:58;;;;;;;32.75;16.75;;;4.90;99.90;;;;;;5073476;28;20443;-53
2021/11/25 09:15:24;;;;;;;33.28;16.75;;;4.90;99.90;;;;;;5050919;28;20501;-53
2021/11/25 09:17:50;;;;;;;32.63;16.03;;;4.80;99.90;;;;;;5059852;28;20480;-54
2021/11/25 09:20:16;;;;;;;30.80;15.63;;;4.90;99.90;;;;;;5068871;28;20947;-53
2021/11/25 09:22:41;;;;;;;33.83;15.80;;;5.00;99.90;;;;;;5037720;28;20870;-53
2021/11/25 09:25:09;;;;;;;31.43;14.40;;;5.40;99.90;;;;;;5068898;28;20383;-53
2021/11/25 09:27:34;;;;;;;28.02;13.90;;;4.70;99.90;;;;;;5068075;28;20749;-55
2021/11/25 09:30:00;;;;;;;32.50;14.63;;;4.60;99.90;;;;;;5067259;28;20465;-53
2021/11/25 09:32:26;;;;;;;29.25;14.63;;;4.70;99.90;;;;;;5066917;28;20426;-53
2021/11/25 09:34:53;;;;;;;28.55;13.00;;;4.70;99.90;;;;;;5068024;28;20383;-53
2021/11/25 09:37:18;;;;;;;28.88;13.52;;;4.60;99.90;;;;;;5065875;28;20399;-54
2021/11/25 09:39:44;;;;;;;28.92;14.30;;;4.60;99.90;;;;;;5057500;28;20843;-53
2021/11/25 09:42:10;;;;;;;26.65;13.07;;;4.70;99.90;;;;;;5050758;28;20413;-55
2021/11/25 09:44:36;;;;;;;28.33;13.70;;;4.80;99.90;;;;;;5057562;28;20881;-54
2021/11/25 09:47:03;;;;;;;31.85;14.07;;;4.70;99.90;;;;;;5058085;28;20396;-54
2021/11/25 09:49:29;;;;;;;31.42;15.02;;;4.50;99.90;;;;;;5047824;28;20485;-54
2021/11/25 09:51:57;;;;;;;33.25;15.85;;;4.60;99.90;;;;;;5046947;28;20385;-53
2021/11/25 09:54:23;;;;;;;37.13;15.93;;;4.70;99.90;;;;;;5047982;28;20405;-54
2021/11/25 09:56:50;;;;;;;31.48;14.82;;;4.80;99.90;;;;;;5047720;28;20416;-54
2021/11/25 09:59:16;;;;;;;32.78;15.38;;;4.80;99.90;;;;;;5048016;28;20796;-53
2021/11/25 10:01:42;;;;;;;32.42;15.40;;;4.80;99.90;;;;;;5047833;28;20456;-53
2021/11/25 10:04:08;;;;;;;28.95;14.60;;;4.90;99.90;;;;;;5048165;28;20389;-54
2021/11/25 10:06:54;;;;;;;30.40;14.90;;;4.80;99.90;;;;;;5048106;28;20758;-55
2021/11/25 10:09:35;;;;;;;35.47;17.15;;;4.80;99.90;;;;;;5047824;28;20402;-54
2021/11/25 10:13:10;;;;;;;32.17;15.57;;;4.90;99.90;;;;;;5054513;28;20435;-53
2021/11/25 10:15:29;;;;;;;30.83;14.55;;;5.00;99.90;;;;;;5068211;28;20402;-54
2021/11/25 10:17:58;;;;;;;31.08;15.55;;;4.90;99.90;;;;;;5081459;28;20979;-54
2021/11/25 10:20:31;;;;;;;28.92;14.32;;;5.10;99.90;;;;;;5061775;28;20407;-54
2021/11/25 10:23:03;;;;;;;30.25;14.23;;;5.20;99.90;;;;;;5073752;28;20478;-54
2021/11/25 10:25:46;;;;;;;30.52;14.88;;;5.30;99.90;;;;;;5076142;28;20493;-54
2021/11/25 10:28:19;;;;;;;31.27;15.68;;;5.30;99.90;;;;;;5077549;28;20498;-55
2021/11/25 10:30:45;;;;;;;33.53;15.98;;;5.30;99.90;;;;;;5084753;28;20933;-53
2021/11/25 10:33:11;;;;;;;31.42;15.63;;;5.20;99.90;;;;;;5082062;28;20431;-54
2021/11/25 10:40:43;;;;;;;32.70;16.38;;;4.90;99.90;;;;;;5070522;28;20387;-53
2021/11/25 10:43:21;;;;;;;33.03;15.38;;;5.00;99.90;;;;;;5071568;28;20402;-54
2021/11/25 10:45:50;;;;;;;30.50;15.68;;;5.10;99.90;;;;;;5070708;28;20383;-55
2021/11/25 10:48:42;;;;;;;33.60;15.70;;;5.10;99.90;;;;;;5071420;28;20419;-53
2021/11/25 10:51:30;;;;;;;33.88;16.58;;;5.10;99.90;;;;;;5071621;28;20853;-53
2021/11/25 10:54:11;;;;;;;34.03;16.10;;;5.10;99.90;;;;;;5070643;28;20455;-54
2021/11/25 10:56:49;;;;;;;31.85;15.15;;;5.00;99.90;;;;;;5071570;28;20387;-55
2021/11/25 10:59:17;;;;;;;36.45;21.70;;;4.90;99.90;;;;;;5071451;28;20483;-53
2021/11/25 11:01:51;;;;;;;31.25;15.30;;;4.80;99.90;;;;;;5070667;28;20418;-53
2021/11/25 11:04:22;;;;;;;33.28;16.65;;;4.90;99.90;;;;;;5071233;28;20380;-55
2021/11/25 11:06:47;;;;;;;32.15;15.25;;;4.70;99.90;;;;;;5070623;28;20372;-53
2021/11/25 11:09:35;;;;;;;35.70;16.30;;;4.70;99.90;;;;;;5071078;28;21006;-53
2021/11/25 11:12:46;;;;;;;37.17;18.95;;;4.60;99.90;;;;;;5070685;28;20819;-55
2021/11/25 11:20:48;;;;;;;39.88;23.92;;;4.80;99.90;;;;;;5071234;28;20454;-55
2021/11/25 11:23:17;;;;;;;32.70;15.80;;;4.90;99.90;;;;;;5071216;28;20455;-55
2021/11/25 11:25:44;;;;;;;32.78;15.65;;;4.70;99.90;;;;;;5052288;28;20363;-55
2021/11/25 11:28:11;;;;;;;34.20;17.08;;;4.70;99.90;;;;;;5070601;28;20461;-55
2021/11/25 11:30:37;;;;;;;35.03;16.95;;;4.80;99.90;;;;;;5070693;28;20384;-55
2021/11/25 11:33:11;;;;;;;33.72;15.93;;;4.90;99.90;;;;;;5051702;28;20383;-53
2021/11/25 11:35:37;;;;;;;34.53;16.37;;;4.90;99.90;;;;;;5070637;28;20407;-53
2021/11/25 11:38:04;;;;;;;36.90;17.05;;;5.00;99.90;;;;;;5069788;28;20391;-53
2021/11/25 11:40:33;;;;;;;35.22;16.98;;;5.00;99.90;;;;;;5070604;28;20408;-53
2021/11/25 11:43:00;;;;;;;43.97;18.50;;;5.00;99.90;;;;;;5069949;28;20957;-54
2021/11/25 11:45:28;;;;;;;33.42;16.27;;;5.00;99.90;;;;;;5070371;28;20888;-53
2021/11/25 11:47:56;;;;;;;33.88;16.10;;;5.10;99.90;;;;;;5069698;28;20452;-53
2021/11/25 11:50:30;;;;;;;32.60;15.80;;;5.10;99.90;;;;;;5070388;28;20486;-54
2021/11/25 11:52:57;;;;;;;33.70;16.48;;;5.10;99.90;;;;;;5069671;28;20739;-53
2021/11/25 11:55:35;;;;;;;38.70;17.85;;;4.90;99.90;;;;;;5070159;28;20384;-56
2021/11/25 11:58:22;;;;;;;35.72;17.98;;;4.80;99.90;;;;;;5069560;28;20403;-54
2021/11/25 12:00:50;;;;;;;33.70;16.10;;;5.00;99.90;;;;;;5069345;28;20461;-54
2021/11/25 12:03:38;;;;;;;32.95;15.63;;;5.10;99.90;;;;;;5069882;28;20479;-54
2021/11/25 12:06:06;;;;;;;33.35;16.45;;;5.00;99.90;;;;;;5069249;28;20812;-53
2021/11/25 12:08:33;;;;;;;31.98;14.93;;;4.90;99.90;;;;;;5069824;28;20420;-53
2021/11/25 12:11:03;;;;;;;32.97;16.88;;;4.80;99.90;;;;;;5069024;28;20395;-55
2021/11/25 12:13:50;;;;;;;34.67;17.25;;;4.80;99.90;;;;;;5055376;28;20408;-55
2021/11/25 12:16:19;;;;;;;33.72;16.38;;;4.80;99.90;;;;;;5069693;28;20729;-54
2021/11/25 12:18:53;;;;;;;33.35;16.17;;;4.70;99.90;;;;;;5068759;28;20749;-57
2021/11/25 12:21:39;;;;;;;33.80;15.10;;;4.70;99.90;;;;;;5051844;28;20399;-55
2021/11/25 12:24:19;;;;;;;33.72;16.50;;;4.60;99.90;;;;;;5068885;28;20437;-54
2021/11/25 12:27:07;;;;;;;31.90;16.13;;;4.60;99.90;;;;;;5068533;28;20964;-56
2021/11/25 12:29:39;;;;;;;30.65;15.70;;;4.60;99.90;;;;;;5069270;28;20848;-54
2021/11/25 12:35:11;;;;;;;34.90;16.85;;;4.50;99.90;;;;;;5068762;28;20393;-55
2021/11/25 12:37:58;;;;;;;31.03;14.73;;;4.70;99.90;;;;;;5069464;28;20384;-55
2021/11/25 12:40:23;;;;;;;35.80;17.40;;;4.80;99.90;;;;;;5069150;28;20468;-54
2021/11/25 12:42:56;;;;;;;32.07;15.93;;;5.60;99.90;;;;;;5068012;28;20865;-55
2021/11/25 12:45:46;;;;;;;36.15;15.77;;;5.20;99.90;;;;;;5068809;28;20379;-54
2021/11/25 12:48:16;;;;;;;34.70;16.05;;;4.60;99.90;;;;;;5069418;28;20396;-54
2021/11/25 12:50:56;;;;;;;49.17;20.57;;;4.70;99.90;;;;;;5069478;28;20406;-55
2021/11/25 12:53:29;;;;;;;34.75;16.45;;;4.70;99.90;;;;;;5051442;28;20394;-54
2021/11/25 12:56:13;;;;;;;30.60;16.30;;;4.80;99.90;;;;;;5068753;28;20460;-54
2021/11/25 12:58:50;;;;;;;34.25;16.20;;;4.60;99.90;;;;;;5069074;28;20388;-54